sensor_id;sensor_type;location;lat;lon;timestamp;temperature;humidity
25504;DHT22;13410;52.114;5.718;2022-08-19T00:01:28;25.00;99.90
25504;DHT22;13410;52.114;5.718;2022-08-19T00:03:55;24.90;99.90
25504;DHT22;13410;52.114;5.718;2022-08-19T00:06:21;24.90;99.90
25504;DHT22;13410;52.114;5.718;2022-08-19T00:08:46;24.90;99.90
25504;DHT22;13410;52.114;5.718;2022-08-19T00:11:12;24.70;99.90
25504;DHT22;13410;52.114;5.718;2022-08-19T00:13:38;24.50;99.90
25504;DHT22;13410;52.114;5.718;2022-08-19T00:16:05;24.40;99.90
25504;DHT22;13410;52.114;5.718;2022-08-19T00:18:32;24.60;99.90
25504;DHT22;13410;52.114;5.718;2022-08-19T00:20:58;24.40;99.90
25504;DHT22;13410;52.114;5.718;2022-08-19T00:23:25;24.40;99.90
25504;DHT22;13410;52.114;5.718;2022-08-19T00:25:51;24.60;99.90
25504;DHT22;13410;52.114;5.718;2022-08-19T00:28:17;24.50;99.90
25504;DHT22;13410;52.114;5.718;2022-08-19T00:30:43;24.10;99.90
25504;DHT22;13410;52.114;5.718;2022-08-19T00:33:09;24.20;99.90
25504;DHT22;13410;52.114;5.718;2022-08-19T00:35:35;24.70;99.90
25504;DHT22;13410;52.114;5.718;2022-08-19T00:38:00;24.80;99.90
25504;DHT22;13410;52.114;5.718;2022-08-19T00:40:26;24.90;99.90
25504;DHT22;13410;52.114;5.718;2022-08-19T00:42:52;25.00;99.90
25504;DHT22;13410;52.114;5.718;2022-08-19T00:45:23;25.10;99.90
25504;DHT22;13410;52.114;5.718;2022-08-19T00:47:51;25.10;99.90
25504;DHT22;13410;52.114;5.718;2022-08-19T00:50:20;25.20;99.90
25504;DHT22;13410;52.114;5.718;2022-08-19T00:52:49;25.30;99.90
25504;DHT22;13410;52.114;5.718;2022-08-19T00:55:22;25.30;99.90
25504;DHT22;13410;52.114;5.718;2022-08-19T00:57:56;25.30;99.90
25504;DHT22;13410;52.114;5.718;2022-08-19T01:00:23;25.10;99.90
25504;DHT22;13410;52.114;5.718;2022-08-19T01:02:50;25.20;99.90
25504;DHT22;13410;52.114;5.718;2022-08-19T01:05:25;24.70;99.90
25504;DHT22;13410;52.114;5.718;2022-08-19T01:07:53;24.30;99.90
25504;DHT22;13410;52.114;5.718;2022-08-19T01:10:23;24.70;99.90
25504;DHT22;13410;52.114;5.718;2022-08-19T01:12:49;24.40;99.90
25504;DHT22;13410;52.114;5.718;2022-08-19T01:15:17;24.40;99.90
25504;DHT22;13410;52.114;5.718;2022-08-19T01:17:44;24.30;99.90
25504;DHT22;13410;52.114;5.718;2022-08-19T01:20:17;24.20;99.90
25504;DHT22;13410;52.114;5.718;2022-08-19T01:22:52;24.10;99.90
25504;DHT22;13410;52.114;5.718;2022-08-19T01:25:22;24.30;99.90
25504;DHT22;13410;52.114;5.718;2022-08-19T01:27:50;24.10;99.90
25504;DHT22;13410;52.114;5.718;2022-08-19T01:30:25;23.90;99.90
25504;DHT22;13410;52.114;5.718;2022-08-19T01:32:51;23.90;99.90
25504;DHT22;13410;52.114;5.718;2022-08-19T01:35:18;23.80;99.90
25504;DHT22;13410;52.114;5.718;2022-08-19T01:37:50;23.30;99.90
25504;DHT22;13410;52.114;5.718;2022-08-19T01:40:18;23.40;99.90
25504;DHT22;13410;52.114;5.718;2022-08-19T01:42:46;23.40;99.90
25504;DHT22;13410;52.114;5.718;2022-08-19T01:45:13;23.30;99.90
25504;DHT22;13410;52.114;5.718;2022-08-19T01:47:39;23.30;99.90
25504;DHT22;13410;52.114;5.718;2022-08-19T01:50:07;23.80;99.90
25504;DHT22;13410;52.114;5.718;2022-08-19T01:52:35;23.70;99.90
25504;DHT22;13410;52.114;5.718;2022-08-19T01:55:01;23.70;99.90
25504;DHT22;13410;52.114;5.718;2022-08-19T01:57:27;23.70;99.90
25504;DHT22;13410;52.114;5.718;2022-08-19T01:59:52;24.10;99.90
25504;DHT22;13410;52.114;5.718;2022-08-19T02:02:19;24.00;99.90
25504;DHT22;13410;52.114;5.718;2022-08-19T02:04:44;24.20;99.90
25504;DHT22;13410;52.114;5.718;2022-08-19T02:07:11;24.40;99.90
25504;DHT22;13410;52.114;5.718;2022-08-19T02:09:36;24.60;99.90
25504;DHT22;13410;52.114;5.718;2022-08-19T02:12:03;24.40;99.90
25504;DHT22;13410;52.114;5.718;2022-08-19T02:14:29;24.60;99.90
25504;DHT22;13410;52.114;5.718;2022-08-19T02:16:55;24.60;99.90
25504;DHT22;13410;52.114;5.718;2022-08-19T02:19:20;24.40;99.90
25504;DHT22;13410;52.114;5.718;2022-08-19T02:21:46;24.20;99.90
25504;DHT22;13410;52.114;5.718;2022-08-19T02:24:11;24.40;99.90
25504;DHT22;13410;52.114;5.718;2022-08-19T02:26:37;24.30;99.90
25504;DHT22;13410;52.114;5.718;2022-08-19T02:29:03;24.50;99.90
25504;DHT22;13410;52.114;5.718;2022-08-19T02:31:29;24.60;99.90
25504;DHT22;13410;52.114;5.718;2022-08-19T02:33:55;24.70;99.90
25504;DHT22;13410;52.114;5.718;2022-08-19T02:36:21;24.60;99.90
25504;DHT22;13410;52.114;5.718;2022-08-19T02:38:48;24.50;99.90
25504;DHT22;13410;52.114;5.718;2022-08-19T02:41:17;24.30;99.90
25504;DHT22;13410;52.114;5.718;2022-08-19T02:43:43;24.20;99.90
25504;DHT22;13410;52.114;5.718;2022-08-19T02:46:23;23.70;99.90
25504;DHT22;13410;52.114;5.718;2022-08-19T02:48:55;23.80;99.90
25504;DHT22;13410;52.114;5.718;2022-08-19T02:51:24;24.30;99.90
25504;DHT22;13410;52.114;5.718;2022-08-19T02:53:50;24.50;99.90
25504;DHT22;13410;52.114;5.718;2022-08-19T02:56:16;24.20;99.90
25504;DHT22;13410;52.114;5.718;2022-08-19T02:58:43;23.90;99.90
25504;DHT22;13410;52.114;5.718;2022-08-19T03:01:09;23.80;99.90
25504;DHT22;13410;52.114;5.718;2022-08-19T03:03:36;23.70;99.90
25504;DHT22;13410;52.114;5.718;2022-08-19T03:06:09;23.80;99.90
25504;DHT22;13410;52.114;5.718;2022-08-19T03:08:36;24.20;99.90
25504;DHT22;13410;52.114;5.718;2022-08-19T03:11:02;24.50;99.90
25504;DHT22;13410;52.114;5.718;2022-08-19T03:13:28;24.50;99.90
25504;DHT22;13410;52.114;5.718;2022-08-19T03:15:53;24.20;99.90
25504;DHT22;13410;52.114;5.718;2022-08-19T03:18:19;24.50;99.90
25504;DHT22;13410;52.114;5.718;2022-08-19T03:20:50;24.40;99.90
25504;DHT22;13410;52.114;5.718;2022-08-19T03:23:18;24.50;99.90
25504;DHT22;13410;52.114;5.718;2022-08-19T03:25:47;23.90;99.90
25504;DHT22;13410;52.114;5.718;2022-08-19T03:28:14;23.80;99.90
25504;DHT22;13410;52.114;5.718;2022-08-19T03:30:41;24.20;99.90
25504;DHT22;13410;52.114;5.718;2022-08-19T03:33:08;24.30;99.90
25504;DHT22;13410;52.114;5.718;2022-08-19T03:35:35;24.60;99.90
25504;DHT22;13410;52.114;5.718;2022-08-19T03:38:05;24.20;99.90
25504;DHT22;13410;52.114;5.718;2022-08-19T03:40:32;24.40;99.90
25504;DHT22;13410;52.114;5.718;2022-08-19T03:43:00;23.90;99.90
25504;DHT22;13410;52.114;5.718;2022-08-19T03:45:26;24.00;99.90
25504;DHT22;13410;52.114;5.718;2022-08-19T03:47:52;24.00;99.90
25504;DHT22;13410;52.114;5.718;2022-08-19T03:50:18;23.70;99.90
25504;DHT22;13410;52.114;5.718;2022-08-19T03:52:51;23.70;99.90
25504;DHT22;13410;52.114;5.718;2022-08-19T03:55:17;23.40;99.90
25504;DHT22;13410;52.114;5.718;2022-08-19T03:57:43;22.90;99.90
25504;DHT22;13410;52.114;5.718;2022-08-19T04:00:11;22.80;99.90
25504;DHT22;13410;52.114;5.718;2022-08-19T04:02:37;22.90;99.90
25504;DHT22;13410;52.114;5.718;2022-08-19T04:05:03;22.70;99.90
25504;DHT22;13410;52.114;5.718;2022-08-19T04:07:28;22.70;99.90
25504;DHT22;13410;52.114;5.718;2022-08-19T04:09:54;23.10;99.90
25504;DHT22;13410;52.114;5.718;2022-08-19T04:12:20;23.20;99.90
25504;DHT22;13410;52.114;5.718;2022-08-19T04:14:45;23.20;99.90
25504;DHT22;13410;52.114;5.718;2022-08-19T04:17:11;22.30;99.90
25504;DHT22;13410;52.114;5.718;2022-08-19T04:19:38;22.30;99.90
25504;DHT22;13410;52.114;5.718;2022-08-19T04:22:04;22.90;99.90
25504;DHT22;13410;52.114;5.718;2022-08-19T04:24:30;22.90;99.90
25504;DHT22;13410;52.114;5.718;2022-08-19T04:26:55;23.10;99.90
25504;DHT22;13410;52.114;5.718;2022-08-19T04:29:24;23.20;99.90
25504;DHT22;13410;52.114;5.718;2022-08-19T04:31:51;23.30;99.90
25504;DHT22;13410;52.114;5.718;2022-08-19T04:34:20;23.20;99.90
25504;DHT22;13410;52.114;5.718;2022-08-19T04:36:47;23.30;99.90
25504;DHT22;13410;52.114;5.718;2022-08-19T04:39:18;22.80;99.90
25504;DHT22;13410;52.114;5.718;2022-08-19T04:41:44;22.70;99.90
25504;DHT22;13410;52.114;5.718;2022-08-19T04:44:35;22.40;99.90
25504;DHT22;13410;52.114;5.718;2022-08-19T04:47:01;22.50;99.90
25504;DHT22;13410;52.114;5.718;2022-08-19T04:49:28;22.40;99.90
25504;DHT22;13410;52.114;5.718;2022-08-19T04:51:56;22.40;99.90
25504;DHT22;13410;52.114;5.718;2022-08-19T04:54:23;22.40;99.90
25504;DHT22;13410;52.114;5.718;2022-08-19T04:56:51;22.40;99.90
25504;DHT22;13410;52.114;5.718;2022-08-19T04:59:17;21.90;99.90
25504;DHT22;13410;52.114;5.718;2022-08-19T05:01:44;21.50;99.90
25504;DHT22;13410;52.114;5.718;2022-08-19T05:04:13;21.70;99.90
25504;DHT22;13410;52.114;5.718;2022-08-19T05:06:39;21.50;99.90
25504;DHT22;13410;52.114;5.718;2022-08-19T05:09:05;21.20;99.90
25504;DHT22;13410;52.114;5.718;2022-08-19T05:11:34;21.20;99.90
25504;DHT22;13410;52.114;5.718;2022-08-19T05:14:01;21.70;99.90
25504;DHT22;13410;52.114;5.718;2022-08-19T05:16:27;21.80;99.90
25504;DHT22;13410;52.114;5.718;2022-08-19T05:18:53;22.40;99.90
25504;DHT22;13410;52.114;5.718;2022-08-19T05:21:38;22.80;99.90
25504;DHT22;13410;52.114;5.718;2022-08-19T05:24:23;23.50;99.90
25504;DHT22;13410;52.114;5.718;2022-08-19T05:26:51;23.70;99.90
25504;DHT22;13410;52.114;5.718;2022-08-19T05:29:19;24.00;99.90
25504;DHT22;13410;52.114;5.718;2022-08-19T05:31:46;24.50;99.90
25504;DHT22;13410;52.114;5.718;2022-08-19T05:34:14;24.80;99.90
25504;DHT22;13410;52.114;5.718;2022-08-19T05:36:42;25.20;99.90
25504;DHT22;13410;52.114;5.718;2022-08-19T05:39:11;25.80;99.90
25504;DHT22;13410;52.114;5.718;2022-08-19T05:41:48;26.10;99.90
25504;DHT22;13410;52.114;5.718;2022-08-19T05:44:14;26.70;99.90
25504;DHT22;13410;52.114;5.718;2022-08-19T05:46:43;26.90;99.90
25504;DHT22;13410;52.114;5.718;2022-08-19T05:49:09;27.80;99.90
25504;DHT22;13410;52.114;5.718;2022-08-19T05:51:35;28.60;99.90
25504;DHT22;13410;52.114;5.718;2022-08-19T05:54:02;29.00;99.90
25504;DHT22;13410;52.114;5.718;2022-08-19T05:56:28;29.20;99.90
25504;DHT22;13410;52.114;5.718;2022-08-19T05:58:56;29.20;99.90
25504;DHT22;13410;52.114;5.718;2022-08-19T06:01:22;29.50;99.90
25504;DHT22;13410;52.114;5.718;2022-08-19T06:03:48;29.70;99.90
25504;DHT22;13410;52.114;5.718;2022-08-19T06:06:15;29.80;99.90
25504;DHT22;13410;52.114;5.718;2022-08-19T06:08:41;30.40;99.90
25504;DHT22;13410;52.114;5.718;2022-08-19T06:13:41;30.60;99.90
25504;DHT22;13410;52.114;5.718;2022-08-19T06:16:06;30.40;99.90
25504;DHT22;13410;52.114;5.718;2022-08-19T06:18:32;30.60;99.90
25504;DHT22;13410;52.114;5.718;2022-08-19T06:20:58;30.90;99.90
25504;DHT22;13410;52.114;5.718;2022-08-19T06:23:24;31.60;99.90
25504;DHT22;13410;52.114;5.718;2022-08-19T06:25:50;31.70;99.90
25504;DHT22;13410;52.114;5.718;2022-08-19T06:28:16;31.90;99.90
25504;DHT22;13410;52.114;5.718;2022-08-19T06:30:41;31.90;99.90
25504;DHT22;13410;52.114;5.718;2022-08-19T06:33:07;32.00;99.90
25504;DHT22;13410;52.114;5.718;2022-08-19T06:35:33;32.00;99.90
25504;DHT22;13410;52.114;5.718;2022-08-19T06:38:03;32.20;99.90
25504;DHT22;13410;52.114;5.718;2022-08-19T06:40:30;32.30;99.90
25504;DHT22;13410;52.114;5.718;2022-08-19T06:42:56;31.90;99.90
25504;DHT22;13410;52.114;5.718;2022-08-19T06:45:23;31.40;99.90
25504;DHT22;13410;52.114;5.718;2022-08-19T06:47:48;30.60;99.90
25504;DHT22;13410;52.114;5.718;2022-08-19T06:50:14;30.40;99.90
25504;DHT22;13410;52.114;5.718;2022-08-19T06:52:39;30.10;99.90
25504;DHT22;13410;52.114;5.718;2022-08-19T06:55:05;29.70;99.90
25504;DHT22;13410;52.114;5.718;2022-08-19T06:57:31;29.50;99.90
25504;DHT22;13410;52.114;5.718;2022-08-19T06:59:58;29.20;99.90
25504;DHT22;13410;52.114;5.718;2022-08-19T07:02:25;28.90;99.90
25504;DHT22;13410;52.114;5.718;2022-08-19T07:04:52;28.50;99.90
25504;DHT22;13410;52.114;5.718;2022-08-19T07:07:19;28.30;99.90
25504;DHT22;13410;52.114;5.718;2022-08-19T07:09:46;28.20;99.90
25504;DHT22;13410;52.114;5.718;2022-08-19T07:12:13;28.10;99.90
25504;DHT22;13410;52.114;5.718;2022-08-19T07:14:41;28.30;99.90
25504;DHT22;13410;52.114;5.718;2022-08-19T07:17:09;28.60;99.90
25504;DHT22;13410;52.114;5.718;2022-08-19T07:19:36;29.00;99.90
25504;DHT22;13410;52.114;5.718;2022-08-19T07:22:03;29.20;99.90
25504;DHT22;13410;52.114;5.718;2022-08-19T07:24:29;29.10;99.90
25504;DHT22;13410;52.114;5.718;2022-08-19T07:26:58;29.20;99.90
25504;DHT22;13410;52.114;5.718;2022-08-19T07:29:27;29.40;99.90
25504;DHT22;13410;52.114;5.718;2022-08-19T07:31:54;29.30;99.90
25504;DHT22;13410;52.114;5.718;2022-08-19T07:34:25;29.20;99.90
25504;DHT22;13410;52.114;5.718;2022-08-19T07:36:52;29.50;99.90
25504;DHT22;13410;52.114;5.718;2022-08-19T07:39:21;29.60;99.90
25504;DHT22;13410;52.114;5.718;2022-08-19T07:41:47;29.70;99.90
25504;DHT22;13410;52.114;5.718;2022-08-19T07:44:14;29.80;99.90
25504;DHT22;13410;52.114;5.718;2022-08-19T07:46:43;29.90;99.90
25504;DHT22;13410;52.114;5.718;2022-08-19T07:49:10;30.20;99.90
25504;DHT22;13410;52.114;5.718;2022-08-19T07:51:56;30.30;99.90
25504;DHT22;13410;52.114;5.718;2022-08-19T07:54:24;30.20;99.90
25504;DHT22;13410;52.114;5.718;2022-08-19T07:56:50;30.40;99.90
25504;DHT22;13410;52.114;5.718;2022-08-19T07:59:17;30.60;99.90
25504;DHT22;13410;52.114;5.718;2022-08-19T08:01:44;30.70;99.90
25504;DHT22;13410;52.114;5.718;2022-08-19T08:04:10;31.00;99.90
25504;DHT22;13410;52.114;5.718;2022-08-19T08:06:54;30.90;99.90
25504;DHT22;13410;52.114;5.718;2022-08-19T08:09:40;30.90;99.90
25504;DHT22;13410;52.114;5.718;2022-08-19T08:12:18;30.90;99.90
25504;DHT22;13410;52.114;5.718;2022-08-19T08:14:48;30.70;99.90
25504;DHT22;13410;52.114;5.718;2022-08-19T08:17:16;30.40;99.90
25504;DHT22;13410;52.114;5.718;2022-08-19T08:19:43;30.30;99.90
25504;DHT22;13410;52.114;5.718;2022-08-19T08:22:10;30.40;99.90
25504;DHT22;13410;52.114;5.718;2022-08-19T08:25:08;30.60;99.90
25504;DHT22;13410;52.114;5.718;2022-08-19T08:27:38;30.60;99.90
25504;DHT22;13410;52.114;5.718;2022-08-19T08:30:06;30.20;99.90
25504;DHT22;13410;52.114;5.718;2022-08-19T08:32:34;30.10;99.90
25504;DHT22;13410;52.114;5.718;2022-08-19T08:35:00;30.10;99.90
25504;DHT22;13410;52.114;5.718;2022-08-19T08:37:25;30.00;99.90
25504;DHT22;13410;52.114;5.718;2022-08-19T08:39:51;30.00;99.90
25504;DHT22;13410;52.114;5.718;2022-08-19T08:42:28;29.70;99.90
25504;DHT22;13410;52.114;5.718;2022-08-19T08:45:05;29.60;99.90
25504;DHT22;13410;52.114;5.718;2022-08-19T08:47:35;29.60;99.90
25504;DHT22;13410;52.114;5.718;2022-08-19T08:50:06;29.80;99.90
25504;DHT22;13410;52.114;5.718;2022-08-19T08:52:37;29.90;99.90
25504;DHT22;13410;52.114;5.718;2022-08-19T08:55:11;29.90;99.90
25504;DHT22;13410;52.114;5.718;2022-08-19T09:00:32;30.10;99.90
25504;DHT22;13410;52.114;5.718;2022-08-19T09:02:59;30.40;99.90
25504;DHT22;13410;52.114;5.718;2022-08-19T09:06:07;30.10;99.90
25504;DHT22;13410;52.114;5.718;2022-08-19T09:11:23;30.10;99.90
25504;DHT22;13410;52.114;5.718;2022-08-19T09:16:42;29.90;99.90
25504;DHT22;13410;52.114;5.718;2022-08-19T09:19:08;29.80;99.90
25504;DHT22;13410;52.114;5.718;2022-08-19T09:21:35;29.90;99.90
25504;DHT22;13410;52.114;5.718;2022-08-19T09:24:02;29.90;99.90
25504;DHT22;13410;52.114;5.718;2022-08-19T09:26:28;30.30;99.90
25504;DHT22;13410;52.114;5.718;2022-08-19T09:28:54;30.50;99.90
25504;DHT22;13410;52.114;5.718;2022-08-19T09:31:24;30.30;99.90
25504;DHT22;13410;52.114;5.718;2022-08-19T09:33:50;30.30;99.90
25504;DHT22;13410;52.114;5.718;2022-08-19T09:36:18;30.20;99.90
25504;DHT22;13410;52.114;5.718;2022-08-19T09:38:44;30.00;99.90
25504;DHT22;13410;52.114;5.718;2022-08-19T09:41:16;30.10;99.90
25504;DHT22;13410;52.114;5.718;2022-08-19T09:43:45;30.00;99.90
25504;DHT22;13410;52.114;5.718;2022-08-19T09:46:12;30.20;99.90
25504;DHT22;13410;52.114;5.718;2022-08-19T09:48:39;30.40;99.90
25504;DHT22;13410;52.114;5.718;2022-08-19T09:51:11;30.40;99.90
25504;DHT22;13410;52.114;5.718;2022-08-19T09:53:40;30.70;99.90
25504;DHT22;13410;52.114;5.718;2022-08-19T09:56:06;30.60;99.90
25504;DHT22;13410;52.114;5.718;2022-08-19T09:58:33;30.40;99.90
25504;DHT22;13410;52.114;5.718;2022-08-19T10:01:01;30.10;99.90
25504;DHT22;13410;52.114;5.718;2022-08-19T10:03:28;30.30;99.90
25504;DHT22;13410;52.114;5.718;2022-08-19T10:05:55;30.40;99.90
25504;DHT22;13410;52.114;5.718;2022-08-19T10:08:27;30.30;99.90
25504;DHT22;13410;52.114;5.718;2022-08-19T10:10:54;30.60;99.90
25504;DHT22;13410;52.114;5.718;2022-08-19T10:13:22;30.80;99.90
25504;DHT22;13410;52.114;5.718;2022-08-19T10:15:51;30.30;99.90
25504;DHT22;13410;52.114;5.718;2022-08-19T10:18:19;30.20;99.90
25504;DHT22;13410;52.114;5.718;2022-08-19T10:20:46;30.00;99.90
25504;DHT22;13410;52.114;5.718;2022-08-19T10:23:12;29.80;99.90
25504;DHT22;13410;52.114;5.718;2022-08-19T10:25:38;29.80;99.90
25504;DHT22;13410;52.114;5.718;2022-08-19T10:28:05;29.20;99.90
25504;DHT22;13410;52.114;5.718;2022-08-19T10:30:31;29.00;99.90
25504;DHT22;13410;52.114;5.718;2022-08-19T10:32:57;29.00;99.90
25504;DHT22;13410;52.114;5.718;2022-08-19T10:35:23;29.30;99.90
25504;DHT22;13410;52.114;5.718;2022-08-19T10:37:50;29.80;99.90
25504;DHT22;13410;52.114;5.718;2022-08-19T10:40:15;30.30;99.90
25504;DHT22;13410;52.114;5.718;2022-08-19T10:42:41;30.40;99.90
25504;DHT22;13410;52.114;5.718;2022-08-19T10:45:07;30.60;99.90
25504;DHT22;13410;52.114;5.718;2022-08-19T10:47:33;30.60;99.90
25504;DHT22;13410;52.114;5.718;2022-08-19T10:49:59;30.50;99.90
25504;DHT22;13410;52.114;5.718;2022-08-19T10:52:46;30.50;99.90
25504;DHT22;13410;52.114;5.718;2022-08-19T10:55:13;30.70;99.90
25504;DHT22;13410;52.114;5.718;2022-08-19T10:57:57;30.90;99.90
25504;DHT22;13410;52.114;5.718;2022-08-19T11:00:24;31.20;99.90
25504;DHT22;13410;52.114;5.718;2022-08-19T11:02:51;31.30;99.90
25504;DHT22;13410;52.114;5.718;2022-08-19T11:05:17;31.70;99.90
25504;DHT22;13410;52.114;5.718;2022-08-19T11:07:44;31.60;99.90
25504;DHT22;13410;52.114;5.718;2022-08-19T11:10:11;31.00;99.90
25504;DHT22;13410;52.114;5.718;2022-08-19T11:12:39;30.90;99.90
25504;DHT22;13410;52.114;5.718;2022-08-19T11:15:07;30.60;99.90
25504;DHT22;13410;52.114;5.718;2022-08-19T11:17:34;30.30;99.90
25504;DHT22;13410;52.114;5.718;2022-08-19T11:20:01;30.30;99.90
25504;DHT22;13410;52.114;5.718;2022-08-19T11:22:29;30.50;99.90
25504;DHT22;13410;52.114;5.718;2022-08-19T11:24:55;30.10;99.90
25504;DHT22;13410;52.114;5.718;2022-08-19T11:27:21;29.80;99.90
25504;DHT22;13410;52.114;5.718;2022-08-19T11:29:47;30.10;99.90
25504;DHT22;13410;52.114;5.718;2022-08-19T11:32:12;30.40;99.90
25504;DHT22;13410;52.114;5.718;2022-08-19T11:34:38;30.70;99.90
25504;DHT22;13410;52.114;5.718;2022-08-19T11:37:05;31.00;99.90
25504;DHT22;13410;52.114;5.718;2022-08-19T11:39:32;30.80;99.90
25504;DHT22;13410;52.114;5.718;2022-08-19T11:42:00;31.00;99.90
25504;DHT22;13410;52.114;5.718;2022-08-19T11:44:27;31.30;99.90
25504;DHT22;13410;52.114;5.718;2022-08-19T11:46:55;31.40;99.90
25504;DHT22;13410;52.114;5.718;2022-08-19T11:49:21;31.70;99.90
25504;DHT22;13410;52.114;5.718;2022-08-19T11:51:47;32.00;99.90
25504;DHT22;13410;52.114;5.718;2022-08-19T11:54:15;32.00;99.90
25504;DHT22;13410;52.114;5.718;2022-08-19T11:56:43;32.20;99.90
25504;DHT22;13410;52.114;5.718;2022-08-19T11:59:09;32.20;99.90
25504;DHT22;13410;52.114;5.718;2022-08-19T12:01:36;32.40;99.90
25504;DHT22;13410;52.114;5.718;2022-08-19T12:04:02;31.80;99.90
25504;DHT22;13410;52.114;5.718;2022-08-19T12:06:31;31.90;99.90
25504;DHT22;13410;52.114;5.718;2022-08-19T12:08:59;32.10;99.90
25504;DHT22;13410;52.114;5.718;2022-08-19T12:11:26;32.20;99.90
25504;DHT22;13410;52.114;5.718;2022-08-19T12:13:52;32.40;99.90
25504;DHT22;13410;52.114;5.718;2022-08-19T12:16:22;32.30;99.90
25504;DHT22;13410;52.114;5.718;2022-08-19T12:18:49;31.90;99.90
25504;DHT22;13410;52.114;5.718;2022-08-19T12:21:22;31.10;99.90
25504;DHT22;13410;52.114;5.718;2022-08-19T12:23:51;31.20;99.90
25504;DHT22;13410;52.114;5.718;2022-08-19T12:26:17;31.70;99.90
25504;DHT22;13410;52.114;5.718;2022-08-19T12:28:43;31.60;99.90
25504;DHT22;13410;52.114;5.718;2022-08-19T12:31:09;31.70;99.90
25504;DHT22;13410;52.114;5.718;2022-08-19T12:33:37;31.70;99.90
25504;DHT22;13410;52.114;5.718;2022-08-19T12:36:06;31.50;99.90
25504;DHT22;13410;52.114;5.718;2022-08-19T12:38:33;31.70;99.90
25504;DHT22;13410;52.114;5.718;2022-08-19T12:40:59;31.90;99.90
25504;DHT22;13410;52.114;5.718;2022-08-19T12:43:25;32.00;99.90
25504;DHT22;13410;52.114;5.718;2022-08-19T12:45:51;31.70;99.90
25504;DHT22;13410;52.114;5.718;2022-08-19T12:48:17;31.60;99.90
25504;DHT22;13410;52.114;5.718;2022-08-19T12:50:44;31.60;99.90
25504;DHT22;13410;52.114;5.718;2022-08-19T12:53:14;31.90;99.90
25504;DHT22;13410;52.114;5.718;2022-08-19T12:55:39;32.10;99.90
25504;DHT22;13410;52.114;5.718;2022-08-19T12:58:05;31.90;99.90
25504;DHT22;13410;52.114;5.718;2022-08-19T13:00:31;31.70;99.90
25504;DHT22;13410;52.114;5.718;2022-08-19T13:02:58;31.70;99.90
25504;DHT22;13410;52.114;5.718;2022-08-19T13:05:27;31.90;99.90
25504;DHT22;13410;52.114;5.718;2022-08-19T13:07:55;32.30;99.90
25504;DHT22;13410;52.114;5.718;2022-08-19T13:10:23;32.50;99.90
25504;DHT22;13410;52.114;5.718;2022-08-19T13:12:51;33.00;99.90
25504;DHT22;13410;52.114;5.718;2022-08-19T13:15:18;32.90;99.90
25504;DHT22;13410;52.114;5.718;2022-08-19T13:17:51;32.90;99.90
25504;DHT22;13410;52.114;5.718;2022-08-19T13:20:19;32.70;99.90
25504;DHT22;13410;52.114;5.718;2022-08-19T13:22:46;32.60;99.90
25504;DHT22;13410;52.114;5.718;2022-08-19T13:25:13;32.50;99.90
25504;DHT22;13410;52.114;5.718;2022-08-19T13:27:39;32.20;99.90
25504;DHT22;13410;52.114;5.718;2022-08-19T13:30:07;32.40;99.90
25504;DHT22;13410;52.114;5.718;2022-08-19T13:32:52;32.10;99.90
25504;DHT22;13410;52.114;5.718;2022-08-19T13:35:49;32.00;99.90
25504;DHT22;13410;52.114;5.718;2022-08-19T13:38:18;31.70;99.90
25504;DHT22;13410;52.114;5.718;2022-08-19T13:40:46;31.60;99.90
25504;DHT22;13410;52.114;5.718;2022-08-19T13:43:12;31.60;99.90
25504;DHT22;13410;52.114;5.718;2022-08-19T13:45:38;31.30;99.90
25504;DHT22;13410;52.114;5.718;2022-08-19T13:48:06;30.40;99.90
25504;DHT22;13410;52.114;5.718;2022-08-19T13:50:37;29.20;99.90
25504;DHT22;13410;52.114;5.718;2022-08-19T13:53:03;28.20;99.90
25504;DHT22;13410;52.114;5.718;2022-08-19T13:55:30;27.50;99.90
25504;DHT22;13410;52.114;5.718;2022-08-19T13:57:58;27.00;99.90
25504;DHT22;13410;52.114;5.718;2022-08-19T14:00:27;26.80;99.90
25504;DHT22;13410;52.114;5.718;2022-08-19T14:02:54;26.20;99.90
25504;DHT22;13410;52.114;5.718;2022-08-19T14:05:22;25.80;99.90
25504;DHT22;13410;52.114;5.718;2022-08-19T14:07:47;25.70;99.90
25504;DHT22;13410;52.114;5.718;2022-08-19T14:10:15;25.60;99.90
25504;DHT22;13410;52.114;5.718;2022-08-19T14:12:41;25.70;99.90
25504;DHT22;13410;52.114;5.718;2022-08-19T14:15:09;26.20;99.90
25504;DHT22;13410;52.114;5.718;2022-08-19T14:17:43;26.70;99.90
25504;DHT22;13410;52.114;5.718;2022-08-19T14:20:11;27.00;99.90
25504;DHT22;13410;52.114;5.718;2022-08-19T14:22:39;27.40;99.90
25504;DHT22;13410;52.114;5.718;2022-08-19T14:25:07;27.60;99.90
25504;DHT22;13410;52.114;5.718;2022-08-19T14:27:35;27.60;99.90
25504;DHT22;13410;52.114;5.718;2022-08-19T14:30:03;27.60;99.90
25504;DHT22;13410;52.114;5.718;2022-08-19T14:32:29;28.00;99.90
25504;DHT22;13410;52.114;5.718;2022-08-19T14:34:55;27.30;99.90
25504;DHT22;13410;52.114;5.718;2022-08-19T14:37:20;26.60;99.90
25504;DHT22;13410;52.114;5.718;2022-08-19T14:39:47;26.40;99.90
25504;DHT22;13410;52.114;5.718;2022-08-19T14:42:13;26.30;99.90
25504;DHT22;13410;52.114;5.718;2022-08-19T14:44:40;26.70;99.90
25504;DHT22;13410;52.114;5.718;2022-08-19T14:47:06;27.20;99.90
25504;DHT22;13410;52.114;5.718;2022-08-19T14:49:33;27.60;99.90
25504;DHT22;13410;52.114;5.718;2022-08-19T14:51:59;27.70;99.90
25504;DHT22;13410;52.114;5.718;2022-08-19T14:54:24;27.80;99.90
25504;DHT22;13410;52.114;5.718;2022-08-19T14:56:50;27.90;99.90
25504;DHT22;13410;52.114;5.718;2022-08-19T14:59:16;28.20;99.90
25504;DHT22;13410;52.114;5.718;2022-08-19T15:01:44;28.30;99.90
25504;DHT22;13410;52.114;5.718;2022-08-19T15:04:10;28.10;99.90
25504;DHT22;13410;52.114;5.718;2022-08-19T15:06:38;27.90;99.90
25504;DHT22;13410;52.114;5.718;2022-08-19T15:09:04;28.10;99.90
25504;DHT22;13410;52.114;5.718;2022-08-19T15:11:31;28.40;99.90
25504;DHT22;13410;52.114;5.718;2022-08-19T15:13:58;29.00;99.90
25504;DHT22;13410;52.114;5.718;2022-08-19T15:16:24;29.00;99.90
25504;DHT22;13410;52.114;5.718;2022-08-19T15:18:52;28.90;99.90
25504;DHT22;13410;52.114;5.718;2022-08-19T15:21:19;29.00;99.90
25504;DHT22;13410;52.114;5.718;2022-08-19T15:23:46;29.30;99.90
25504;DHT22;13410;52.114;5.718;2022-08-19T15:26:14;29.70;99.90
25504;DHT22;13410;52.114;5.718;2022-08-19T15:28:40;29.90;99.90
25504;DHT22;13410;52.114;5.718;2022-08-19T15:31:06;29.90;99.90
25504;DHT22;13410;52.114;5.718;2022-08-19T15:33:34;29.80;99.90
25504;DHT22;13410;52.114;5.718;2022-08-19T15:36:06;30.10;99.90
25504;DHT22;13410;52.114;5.718;2022-08-19T15:38:33;30.40;99.90
25504;DHT22;13410;52.114;5.718;2022-08-19T15:41:05;30.30;99.90
25504;DHT22;13410;52.114;5.718;2022-08-19T15:43:59;30.50;99.90
25504;DHT22;13410;52.114;5.718;2022-08-19T15:46:27;30.40;99.90